createdAt,value
2019-02-18T00:03:24.000Z,33.43
2019-02-18T00:08:27.701Z,34.63
2019-02-18T00:13:31.509Z,32.07
2019-02-18T00:18:35.632Z,31.80
2019-02-18T00:23:39.395Z,33.83
2019-02-18T00:28:43.136Z,31.20
2019-02-18T00:33:46.905Z,29.70
2019-02-18T00:38:50.552Z,31.27
2019-02-18T00:43:54.248Z,27.80
2019-02-18T00:48:57.962Z,26.13
2019-02-18T00:54:01.683Z,24.73
2019-02-18T00:59:05.438Z,26.77
2019-02-18T01:04:09.169Z,24.47
2019-02-18T01:09:12.906Z,24.70
2019-02-18T01:14:16.610Z,23.83
2019-02-18T01:19:20.387Z,21.67
2019-02-18T01:24:24.122Z,20.10
2019-02-18T01:29:27.826Z,20.97
2019-02-18T01:34:32.776Z,22.73
2019-02-18T01:39:36.578Z,19.00
2019-02-18T01:44:40.270Z,17.80
2019-02-18T01:49:44.122Z,17.07
2019-02-18T01:54:47.904Z,18.47
2019-02-18T01:59:51.656Z,16.93
2019-02-18T02:04:55.436Z,17.87
2019-02-18T02:09:59.096Z,16.47
2019-02-18T02:15:02.814Z,18.07
2019-02-18T02:20:06.475Z,16.57
2019-02-18T02:25:10.121Z,17.10
2019-02-18T02:30:14.162Z,14.03
2019-02-18T02:35:17.891Z,15.03
2019-02-18T02:40:21.574Z,13.20
2019-02-18T02:45:25.288Z,14.57
2019-02-18T02:50:28.972Z,16.67
2019-02-18T02:55:32.753Z,13.83
2019-02-18T03:00:36.431Z,17.67
2019-02-18T03:05:40.111Z,14.80
2019-02-18T03:10:43.895Z,12.70
2019-02-18T03:15:47.574Z,13.07
2019-02-18T03:20:51.331Z,13.13
2019-02-18T03:25:55.449Z,11.23
2019-02-18T03:31:12.277Z,14.10
2019-02-18T03:36:16.050Z,12.20
2019-02-18T03:41:19.836Z,12.20
2019-02-18T03:46:23.637Z,12.10
2019-02-18T03:51:27.349Z,11.23
2019-02-18T03:56:31.128Z,14.43
2019-02-18T04:01:34.875Z,12.63
2019-02-18T04:06:38.630Z,11.87
2019-02-18T04:11:42.733Z,12.03
2019-02-18T04:16:46.422Z,12.13
2019-02-18T04:21:50.178Z,10.60
2019-02-18T04:26:53.852Z,11.03
2019-02-18T04:31:57.512Z,10.87
2019-02-18T04:37:01.237Z,13.67
2019-02-18T04:42:04.989Z,12.23
2019-02-18T04:47:08.695Z,10.70
2019-02-18T04:52:12.375Z,10.40
2019-02-18T04:57:16.084Z,11.20
2019-02-18T05:02:19.953Z,11.67
2019-02-18T05:07:23.723Z,9.73
2019-02-18T05:12:27.443Z,11.80
2019-02-18T05:17:31.172Z,10.60
2019-02-18T05:22:35.089Z,10.70
2019-02-18T05:27:38.877Z,9.40
2019-02-18T05:32:42.801Z,10.90
2019-02-18T05:37:46.513Z,10.13
2019-02-18T05:42:50.285Z,9.80
2019-02-18T05:47:53.971Z,11.23
2019-02-18T05:52:57.646Z,10.57
2019-02-18T05:58:01.460Z,9.80
2019-02-18T06:03:05.242Z,11.30
2019-02-18T06:08:08.935Z,10.70
2019-02-18T06:13:12.697Z,8.77
2019-02-18T06:18:16.798Z,10.90
2019-02-18T06:23:20.608Z,10.60
2019-02-18T06:28:24.474Z,10.50
2019-02-18T06:33:28.608Z,11.17
2019-02-18T06:38:33.822Z,10.00
2019-02-18T06:43:37.603Z,10.60
2019-02-18T06:48:47.000Z,10.50
2019-02-18T06:53:53.262Z,10.73
2019-02-18T06:59:08.983Z,10.73
2019-02-18T07:04:34.918Z,10.30
2019-02-18T07:09:52.776Z,9.60
2019-02-18T07:14:56.964Z,10.47
2019-02-18T07:20:01.034Z,10.40
2019-02-18T07:25:05.649Z,10.50
2019-02-18T07:30:12.299Z,10.60
2019-02-18T07:35:16.110Z,8.67
2019-02-18T07:40:19.956Z,9.60
2019-02-18T07:45:24.160Z,10.23
2019-02-18T07:50:28.056Z,11.30
2019-02-18T07:55:31.798Z,10.20
2019-02-18T08:00:35.553Z,12.70
2019-02-18T08:05:39.674Z,12.37
2019-02-18T08:10:43.462Z,12.33
2019-02-18T08:15:48.502Z,9.90
2019-02-18T08:20:52.166Z,11.10
2019-02-18T08:25:55.999Z,12.47
2019-02-18T08:30:59.862Z,11.83
2019-02-18T08:36:04.049Z,13.00
2019-02-18T08:41:07.833Z,16.60
2019-02-18T08:46:15.114Z,13.20
2019-02-18T08:51:18.889Z,12.93
2019-02-18T08:56:22.679Z,13.20
2019-02-18T09:01:26.577Z,16.83
2019-02-18T09:06:30.729Z,13.27
2019-02-18T09:11:34.778Z,16.37
2019-02-18T09:16:38.824Z,18.83
2019-02-18T09:21:42.892Z,15.17
2019-02-18T09:26:46.683Z,11.30
2019-02-18T09:31:50.494Z,13.13
2019-02-18T09:36:56.022Z,13.70
2019-02-18T09:42:18.973Z,9.97
2019-02-18T09:47:22.933Z,10.47
2019-02-18T09:52:28.150Z,11.23
2019-02-18T09:57:31.923Z,11.87
2019-02-18T10:02:35.672Z,12.67
2019-02-18T10:07:39.501Z,10.90
2019-02-18T10:12:43.261Z,10.00
2019-02-18T10:17:47.019Z,9.17
2019-02-18T10:22:50.765Z,8.17
2019-02-18T10:27:54.661Z,10.23
2019-02-18T10:32:58.449Z,8.90
2019-02-18T10:38:02.177Z,10.53
2019-02-18T10:43:06.030Z,10.30
2019-02-18T10:48:09.962Z,10.33
2019-02-18T10:53:13.972Z,11.23
2019-02-18T10:58:17.781Z,11.87
2019-02-18T11:03:21.653Z,9.70
2019-02-18T11:08:25.571Z,8.90
2019-02-18T11:13:29.378Z,10.73
2019-02-18T11:18:33.322Z,12.03
2019-02-18T11:23:37.143Z,9.47
2019-02-18T11:28:40.903Z,14.40
2019-02-18T11:33:44.720Z,12.47
2019-02-18T11:38:48.498Z,13.10
2019-02-18T11:43:52.369Z,12.93
2019-02-18T11:48:56.227Z,14.37
2019-02-18T11:54:00.048Z,13.87
2019-02-18T11:59:03.744Z,13.70
2019-02-18T12:04:07.675Z,14.43
2019-02-18T12:09:11.478Z,14.63
2019-02-18T12:14:15.327Z,16.43
2019-02-18T12:19:19.061Z,14.90
2019-02-18T12:24:22.854Z,14.60
2019-02-18T12:29:26.906Z,15.23
2019-02-18T12:34:30.887Z,13.60
2019-02-18T12:39:34.873Z,13.30
2019-02-18T12:44:39.085Z,16.40
2019-02-18T12:49:43.166Z,13.40
2019-02-18T12:54:47.375Z,16.57
2019-02-18T12:59:52.552Z,12.43
2019-02-18T13:04:56.956Z,10.70
2019-02-18T13:10:01.078Z,12.73
2019-02-18T13:15:05.760Z,13.43
2019-02-18T13:20:09.799Z,9.80
2019-02-18T13:25:13.529Z,11.53
2019-02-18T13:30:21.770Z,10.47
2019-02-18T13:35:25.576Z,13.17
2019-02-18T13:40:29.492Z,17.20
2019-02-18T13:45:33.300Z,25.07
2019-02-18T13:50:37.079Z,28.33
2019-02-18T13:55:41.371Z,26.73
2019-02-18T14:00:45.162Z,25.80
2019-02-18T14:05:49.057Z,21.23
2019-02-18T14:10:53.015Z,19.20
2019-02-18T14:15:56.782Z,17.83
2019-02-18T14:21:00.877Z,17.70
2019-02-18T14:26:06.315Z,15.80
2019-02-18T14:31:10.197Z,16.20
2019-02-18T14:36:14.756Z,15.33
2019-02-18T14:41:18.541Z,12.63
2019-02-18T14:46:22.373Z,11.67
2019-02-18T14:51:26.099Z,11.43
2019-02-18T14:56:31.447Z,8.40
2019-02-18T15:01:35.573Z,10.90
2019-02-18T15:06:39.351Z,9.33
2019-02-18T15:11:45.409Z,10.30
2019-02-18T15:16:49.637Z,10.37
2019-02-18T15:21:53.426Z,9.77
2019-02-18T15:26:57.338Z,8.60
2019-02-18T15:32:01.269Z,7.60
2019-02-18T15:37:06.281Z,8.20
2019-02-18T15:42:10.030Z,7.93
2019-02-18T15:47:13.754Z,8.03
2019-02-18T15:52:17.552Z,5.83
2019-02-18T15:57:21.900Z,6.90
2019-02-18T16:02:25.869Z,10.75
2019-02-18T16:07:31.910Z,6.17
2019-02-18T16:12:35.756Z,8.20
2019-02-18T16:17:41.992Z,6.37
2019-02-18T16:22:45.852Z,7.30
2019-02-18T16:27:49.889Z,8.67
2019-02-18T16:32:53.821Z,9.47
2019-02-18T16:37:57.640Z,7.97
2019-02-18T16:43:01.813Z,7.47
2019-02-18T16:48:05.818Z,7.67
2019-02-18T16:53:09.883Z,8.87
2019-02-18T16:58:14.802Z,7.20
2019-02-18T17:03:18.609Z,6.63
2019-02-18T17:08:22.503Z,9.23
2019-02-18T17:13:26.319Z,8.57
2019-02-18T17:18:30.066Z,7.40
2019-02-18T17:23:33.953Z,6.70
2019-02-18T17:28:37.751Z,6.87
2019-02-18T17:33:41.656Z,8.30
2019-02-18T17:38:47.413Z,13.10
2019-02-18T17:43:50.931Z,8.17
2019-02-18T17:48:54.849Z,6.70
2019-02-18T17:53:58.595Z,6.00
2019-02-18T17:59:02.609Z,7.33
2019-02-18T18:04:06.522Z,7.83
2019-02-18T18:09:10.290Z,7.80
2019-02-18T18:14:15.565Z,6.50
2019-02-18T18:19:19.781Z,7.60
2019-02-18T18:24:23.895Z,7.40
2019-02-18T18:29:27.689Z,6.70
2019-02-18T18:34:31.503Z,9.80
2019-02-18T18:39:36.653Z,6.80
2019-02-18T18:44:40.428Z,9.00
2019-02-18T18:49:44.211Z,8.90
2019-02-18T18:54:52.945Z,7.10
2019-02-18T18:59:57.409Z,8.63
2019-02-18T19:05:01.223Z,7.10
2019-02-18T19:10:05.622Z,8.93
2019-02-18T19:15:10.273Z,10.80
2019-02-18T19:20:14.205Z,7.50
2019-02-18T19:25:18.179Z,10.63
2019-02-18T19:30:24.468Z,8.77
2019-02-18T19:35:28.445Z,10.77
2019-02-18T19:40:32.358Z,9.37
2019-02-18T19:45:36.160Z,7.47
2019-02-18T19:50:40.000Z,10.83
2019-02-18T19:55:43.830Z,10.00
2019-02-18T20:00:47.586Z,8.90
2019-02-18T20:05:52.624Z,8.47
2019-02-18T20:10:58.228Z,10.07
2019-02-18T20:16:02.010Z,12.43
2019-02-18T20:21:06.994Z,11.43
2019-02-18T20:26:11.120Z,9.17
2019-02-18T20:31:14.912Z,10.50
2019-02-18T20:36:18.910Z,9.47
2019-02-18T20:41:25.495Z,12.20
2019-02-18T20:46:29.283Z,9.70
2019-02-18T20:51:33.180Z,9.30
2019-02-18T20:56:37.014Z,12.00
2019-02-18T21:01:40.759Z,9.00
2019-02-18T21:06:44.760Z,11.50
2019-02-18T21:11:48.552Z,11.60
2019-02-18T21:16:52.349Z,10.90
2019-02-18T21:21:56.867Z,13.30
2019-02-18T21:27:00.602Z,9.90
2019-02-18T21:32:05.406Z,11.07
2019-02-18T21:37:09.423Z,11.27
2019-02-18T21:42:13.196Z,10.13
2019-02-18T21:47:17.014Z,10.13
2019-02-18T21:52:21.066Z,10.70
2019-02-18T21:57:26.139Z,10.13
2019-02-18T22:02:29.902Z,10.70
2019-02-18T22:07:33.667Z,9.90
2019-02-18T22:12:37.720Z,12.17
2019-02-18T22:17:41.697Z,11.03
2019-02-18T22:22:45.538Z,10.10
2019-02-18T22:27:49.351Z,11.60
2019-02-18T22:32:53.181Z,10.20
2019-02-18T22:37:56.982Z,11.73
2019-02-18T22:43:00.791Z,10.03
2019-02-18T22:48:04.490Z,9.83
2019-02-18T22:53:08.187Z,11.10
2019-02-18T22:58:11.935Z,12.40
2019-02-18T23:03:16.060Z,11.80
2019-02-18T23:08:19.723Z,12.50
2019-02-18T23:13:23.500Z,10.43
2019-02-18T23:18:27.282Z,16.23
2019-02-18T23:23:31.118Z,13.37
2019-02-18T23:28:35.174Z,10.30
2019-02-18T23:33:38.958Z,12.40
2019-02-18T23:38:42.667Z,12.77
2019-02-18T23:43:46.389Z,11.23
2019-02-18T23:48:52.656Z,13.17
2019-02-18T23:53:56.732Z,14.13
2019-02-18T23:59:00.432Z,18.70
